Time;durP1;ratioP1;P1;durP2;ratioP2;P2;SDS_P1;SDS_P2;PMS_P1;PMS_P2;Temp;Humidity;BMP_temperature;BMP_pressure;BME280_temperature;BME280_humidity;BME280_pressure;Samples;Min_cycle;Max_cycle;Signal;HPM_P1;HPM_P2
2022/05/25 00:01:33;;;;;;;5.05;2.90;;;12.70;99.90;;;;;;5084318;28;20067;-65
2022/05/25 00:04:00;;;;;;;5.25;2.90;;;12.70;99.90;;;;;;5084597;28;20354;-65
2022/05/25 00:06:26;;;;;;;5.63;2.95;;;12.70;99.90;;;;;;5082501;28;20032;-65
2022/05/25 00:08:52;;;;;;;5.03;3.20;;;12.70;99.90;;;;;;5076403;28;20036;-66
2022/05/25 00:11:18;;;;;;;5.30;3.05;;;12.70;99.90;;;;;;5083959;28;20044;-65
2022/05/25 00:13:43;;;;;;;5.63;3.30;;;12.70;99.90;;;;;;5080711;28;20064;-64
2022/05/25 00:16:09;;;;;;;4.93;3.22;;;12.70;99.90;;;;;;5078062;28;20124;-64
2022/05/25 00:18:34;;;;;;;5.90;3.25;;;12.60;99.90;;;;;;5081649;28;20378;-64
2022/05/25 00:21:00;;;;;;;6.05;3.38;;;12.60;99.90;;;;;;5080407;28;20094;-64
2022/05/25 00:23:26;;;;;;;5.10;3.38;;;12.60;99.90;;;;;;5088508;28;20089;-64
2022/05/25 00:25:51;;;;;;;6.70;3.05;;;12.60;99.90;;;;;;5085742;28;20430;-64
2022/05/25 00:28:17;;;;;;;5.07;2.90;;;12.60;99.90;;;;;;5086413;28;20044;-64
2022/05/25 00:30:45;;;;;;;5.53;3.22;;;12.50;99.90;;;;;;5080057;28;20048;-64
2022/05/25 00:33:11;;;;;;;5.28;3.22;;;12.50;99.90;;;;;;5083273;28;20044;-64
2022/05/25 00:35:39;;;;;;;5.53;3.63;;;12.50;99.90;;;;;;5085014;28;20036;-63
2022/05/25 00:38:07;;;;;;;4.93;3.42;;;12.50;99.90;;;;;;5078724;28;20108;-63
2022/05/25 00:40:40;;;;;;;9.43;3.88;;;12.40;99.90;;;;;;5085930;28;20048;-64
2022/05/25 00:43:07;;;;;;;5.30;3.45;;;12.40;99.90;;;;;;5082930;28;20063;-64
2022/05/25 00:45:36;;;;;;;6.65;3.40;;;12.30;99.90;;;;;;5077384;28;20712;-63
2022/05/25 00:48:05;;;;;;;5.72;3.40;;;12.30;99.90;;;;;;5078262;28;20036;-63
2022/05/25 00:51:12;;;;;;;7.03;3.90;;;12.30;99.90;;;;;;5081826;28;20383;-64
2022/05/25 00:53:17;;;;;;;6.32;3.60;;;12.30;99.90;;;;;;5080553;28;20143;-63
2022/05/25 00:55:44;;;;;;;5.10;3.83;;;12.30;99.90;;;;;;5075082;28;20395;-63
2022/05/25 00:58:09;;;;;;;5.18;3.67;;;12.20;99.90;;;;;;5082253;28;20080;-65
2022/05/25 01:00:35;;;;;;;6.05;3.63;;;12.20;99.90;;;;;;5073982;28;20193;-64
2022/05/25 01:03:08;;;;;;;5.85;3.90;;;12.20;99.90;;;;;;5076867;28;20048;-63
2022/05/25 01:06:03;;;;;;;6.28;4.13;;;12.20;99.90;;;;;;5083126;28;20463;-63
2022/05/25 01:08:53;;;;;;;5.82;4.05;;;12.20;99.90;;;;;;5078219;28;20047;-63
2022/05/25 01:12:06;;;;;;;8.95;4.50;;;12.20;99.90;;;;;;5077821;28;20529;-62
2022/05/25 01:14:50;;;;;;;7.55;4.32;;;12.20;99.90;;;;;;5078891;28;20043;-63
2022/05/25 01:17:43;;;;;;;6.50;4.43;;;12.10;99.90;;;;;;5079469;28;20058;-62
2022/05/25 01:20:27;;;;;;;6.43;4.30;;;12.10;99.90;;;;;;5075492;28;20071;-63
2022/05/25 01:23:17;;;;;;;7.65;4.68;;;12.10;99.90;;;;;;5082872;28;20051;-66
2022/05/25 01:25:51;;;;;;;7.68;5.00;;;12.00;99.90;;;;;;5079087;28;20599;-63
2022/05/25 01:28:35;;;;;;;6.83;4.43;;;12.00;99.90;;;;;;5077521;28;20052;-63
2022/05/25 01:31:07;;;;;;;6.15;4.70;;;12.00;99.90;;;;;;5082114;28;20040;-63
2022/05/25 01:33:52;;;;;;;6.55;4.90;;;12.00;99.90;;;;;;5078499;28;20051;-62
2022/05/25 01:36:27;;;;;;;7.53;4.73;;;12.00;99.90;;;;;;5080633;28;20470;-63
2022/05/25 01:39:01;;;;;;;6.47;4.68;;;12.00;99.90;;;;;;5078866;28;20123;-63
2022/05/25 01:41:32;;;;;;;7.70;5.70;;;11.90;99.90;;;;;;5076294;28;20107;-62
2022/05/25 01:44:04;;;;;;;8.27;4.88;;;11.90;99.90;;;;;;5082800;28;20039;-63
2022/05/25 01:46:40;;;;;;;8.07;5.30;;;11.90;99.90;;;;;;5084964;28;20055;-63
2022/05/25 01:49:12;;;;;;;9.63;5.45;;;11.90;99.90;;;;;;5078308;28;20044;-63
2022/05/25 01:51:57;;;;;;;7.93;5.45;;;11.80;99.90;;;;;;5080991;28;20415;-63
2022/05/25 01:54:27;;;;;;;9.00;5.70;;;11.90;99.90;;;;;;5083233;28;20044;-63
2022/05/25 01:56:56;;;;;;;9.95;6.10;;;11.80;99.90;;;;;;5081433;28;20101;-65
2022/05/25 01:59:21;;;;;;;7.90;5.57;;;11.80;99.90;;;;;;5075102;28;20188;-62
2022/05/25 02:04:19;;;;;;;9.88;5.68;;;11.80;99.90;;;;;;5081493;28;20151;-63
2022/05/25 02:04:38;;;;;;;8.07;6.15;;;11.80;99.90;;;;;;5083433;28;20043;-63
2022/05/25 02:07:33;;;;;;;8.90;6.00;;;11.70;99.90;;;;;;5081693;28;20037;-62
2022/05/25 02:10:04;;;;;;;8.07;5.72;;;11.70;99.90;;;;;;5075542;28;20066;-63
2022/05/25 02:12:59;;;;;;;8.00;5.93;;;11.70;99.90;;;;;;5078258;28;20052;-63
2022/05/25 02:15:59;;;;;;;8.50;6.60;;;11.60;99.90;;;;;;5077738;28;21158;-64
2022/05/25 02:18:34;;;;;;;10.32;6.85;;;11.60;99.90;;;;;;5073894;28;20063;-64
2022/05/25 02:21:07;;;;;;;9.82;6.55;;;11.60;99.90;;;;;;5073134;28;20104;-64
2022/05/25 02:23:52;;;;;;;9.45;6.97;;;11.60;99.90;;;;;;5078042;28;20048;-65
2022/05/25 02:26:27;;;;;;;8.30;6.82;;;11.60;99.90;;;;;;5080580;28;20129;-64
2022/05/25 02:29:07;;;;;;;7.43;6.32;;;11.50;99.90;;;;;;5075945;28;20032;-64
2022/05/25 02:31:38;;;;;;;8.45;6.75;;;11.50;99.90;;;;;;5075753;28;20482;-64
2022/05/25 02:34:06;;;;;;;8.55;6.90;;;11.50;99.90;;;;;;5075232;28;20107;-63
2022/05/25 02:36:34;;;;;;;8.77;7.07;;;11.50;99.90;;;;;;5080925;28;20040;-64
2022/05/25 02:39:07;;;;;;;11.77;7.32;;;11.50;99.90;;;;;;5078827;28;20063;-63
2022/05/25 02:41:35;;;;;;;9.55;7.25;;;11.50;99.90;;;;;;5071103;28;20052;-64
2022/05/25 02:44:02;;;;;;;9.35;7.60;;;11.50;99.90;;;;;;5072994;28;20044;-64
2022/05/25 02:46:28;;;;;;;10.73;7.88;;;11.40;99.90;;;;;;5075178;28;20048;-63
2022/05/25 02:48:54;;;;;;;9.80;7.88;;;11.50;99.90;;;;;;5072772;28;20093;-63
2022/05/25 02:51:20;;;;;;;8.82;7.70;;;11.40;99.90;;;;;;5073789;28;20153;-64
2022/05/25 02:53:46;;;;;;;9.75;7.40;;;11.40;99.90;;;;;;5074000;28;20037;-62
2022/05/25 02:56:12;;;;;;;10.85;7.45;;;11.40;99.90;;;;;;5072276;28;20078;-63
2022/05/25 02:58:37;;;;;;;10.43;7.45;;;11.40;99.90;;;;;;5081517;28;20052;-64
2022/05/25 03:01:04;;;;;;;10.43;8.23;;;11.40;99.90;;;;;;5080150;28;20052;-63
2022/05/25 03:03:33;;;;;;;11.13;8.40;;;11.40;99.90;;;;;;5077139;28;20633;-63
2022/05/25 03:05:59;;;;;;;11.90;8.38;;;11.40;99.90;;;;;;5073858;28;20047;-63
2022/05/25 03:08:26;;;;;;;10.07;8.27;;;11.40;99.90;;;;;;5073856;28;20048;-63
2022/05/25 03:10:51;;;;;;;11.07;8.50;;;11.30;99.90;;;;;;5072663;28;20185;-63
2022/05/25 03:13:17;;;;;;;12.20;8.13;;;11.30;99.90;;;;;;5071940;28;20139;-64
2022/05/25 03:15:42;;;;;;;9.18;7.82;;;11.30;99.90;;;;;;5073637;28;20044;-62
2022/05/25 03:18:08;;;;;;;10.55;8.13;;;11.30;99.90;;;;;;5074211;28;20036;-62
2022/05/25 03:20:34;;;;;;;11.98;8.27;;;11.30;99.90;;;;;;5073897;28;20048;-62
2022/05/25 03:22:59;;;;;;;9.45;7.82;;;11.30;99.90;;;;;;5076463;28;20115;-63
2022/05/25 03:25:25;;;;;;;10.73;8.45;;;11.30;99.90;;;;;;5075936;28;20076;-65
2022/05/25 03:27:50;;;;;;;13.27;8.20;;;11.30;99.90;;;;;;5075981;28;20076;-63
2022/05/25 03:30:19;;;;;;;12.80;8.35;;;11.20;99.90;;;;;;5079507;28;20146;-63
2022/05/25 03:32:45;;;;;;;11.10;8.40;;;11.20;99.90;;;;;;5080196;28;20044;-66
2022/05/25 03:35:11;;;;;;;10.18;8.07;;;11.20;99.90;;;;;;5075981;28;20048;-65
2022/05/25 03:37:37;;;;;;;11.43;8.60;;;11.30;99.90;;;;;;5073706;28;21772;-64
2022/05/25 03:40:05;;;;;;;10.15;8.10;;;11.30;99.90;;;;;;5080120;28;20060;-64
2022/05/25 03:42:30;;;;;;;11.18;8.75;;;11.20;99.90;;;;;;5077480;28;20074;-65
2022/05/25 03:44:56;;;;;;;9.88;8.20;;;11.20;99.90;;;;;;5078231;28;20054;-64
2022/05/25 03:47:21;;;;;;;11.75;9.00;;;11.20;99.90;;;;;;5076186;28;20096;-65
2022/05/25 03:49:47;;;;;;;12.32;8.98;;;11.20;99.90;;;;;;5077852;28;20037;-64
2022/05/25 03:52:12;;;;;;;13.82;8.25;;;11.20;99.90;;;;;;5074699;28;20040;-64
2022/05/25 03:54:38;;;;;;;12.07;8.13;;;11.20;99.90;;;;;;5077577;28;20319;-65
2022/05/25 03:57:05;;;;;;;10.20;8.13;;;11.10;99.90;;;;;;5076798;28;20044;-65
2022/05/25 03:59:30;;;;;;;12.10;9.18;;;11.20;99.90;;;;;;5079301;28;20082;-64
2022/05/25 04:01:56;;;;;;;12.63;9.07;;;11.20;99.90;;;;;;5074793;28;20495;-65
2022/05/25 04:04:22;;;;;;;10.82;9.10;;;11.20;99.90;;;;;;5076581;28;20055;-67
2022/05/25 04:06:47;;;;;;;10.18;7.80;;;11.20;99.90;;;;;;5074235;28;20067;-66
2022/05/25 04:09:13;;;;;;;11.15;8.13;;;11.30;99.90;;;;;;5073378;28;20131;-64
2022/05/25 04:11:41;;;;;;;11.77;8.07;;;11.40;99.90;;;;;;5076747;28;20048;-65
2022/05/25 04:14:07;;;;;;;10.18;8.10;;;11.50;99.90;;;;;;5074017;28;20048;-65
2022/05/25 04:16:32;;;;;;;10.85;8.05;;;11.50;99.90;;;;;;5074195;28;20028;-64
2022/05/25 04:18:58;;;;;;;13.93;8.63;;;11.60;99.90;;;;;;5076116;28;20048;-65
2022/05/25 04:21:24;;;;;;;12.82;7.88;;;11.60;99.90;;;;;;5072327;28;20041;-64
2022/05/25 04:23:50;;;;;;;11.43;8.10;;;11.60;99.90;;;;;;5075639;28;20054;-66
2022/05/25 04:26:16;;;;;;;10.70;8.73;;;11.60;99.90;;;;;;5075177;28;20050;-66
2022/05/25 04:28:41;;;;;;;10.93;8.73;;;11.60;99.90;;;;;;5073153;28;20880;-66
2022/05/25 04:31:07;;;;;;;12.00;8.50;;;11.70;99.90;;;;;;5078852;28;20192;-66
2022/05/25 04:33:35;;;;;;;12.85;8.82;;;11.70;99.90;;;;;;5075433;28;20040;-64
2022/05/25 04:36:00;;;;;;;11.50;8.32;;;11.80;99.90;;;;;;5082387;28;20115;-63
2022/05/25 04:38:26;;;;;;;11.93;8.70;;;11.90;99.90;;;;;;5081929;28;20127;-64
2022/05/25 04:40:52;;;;;;;12.07;8.50;;;12.00;99.90;;;;;;5079555;28;20462;-64
2022/05/25 04:43:20;;;;;;;12.98;9.02;;;12.20;99.90;;;;;;5083896;28;20505;-64
2022/05/25 04:45:47;;;;;;;11.13;8.20;;;12.30;99.90;;;;;;5084461;28;20120;-64
2022/05/25 04:48:15;;;;;;;11.93;8.73;;;12.40;99.90;;;;;;5081954;28;20043;-65
2022/05/25 04:50:43;;;;;;;11.07;8.02;;;12.40;99.90;;;;;;5075020;28;20048;-64
2022/05/25 04:53:11;;;;;;;13.02;9.00;;;12.60;99.90;;;;;;5076607;28;20040;-65
2022/05/25 04:58:26;;;;;;;11.40;8.60;;;12.70;99.90;;;;;;5075176;28;20048;-67
2022/05/25 05:00:52;;;;;;;11.15;8.27;;;12.80;99.90;;;;;;5073890;28;20056;-65
2022/05/25 05:03:19;;;;;;;13.00;8.63;;;12.90;99.90;;;;;;5083192;28;20061;-64
2022/05/25 05:05:45;;;;;;;11.15;8.55;;;13.00;99.90;;;;;;5089393;28;20040;-64
2022/05/25 05:08:12;;;;;;;11.15;7.80;;;13.10;99.90;;;;;;5079614;28;20044;-64
2022/05/25 05:10:38;;;;;;;11.63;8.80;;;13.10;99.90;;;;;;5084351;28;20404;-66
2022/05/25 05:13:04;;;;;;;12.70;8.90;;;13.20;99.90;;;;;;5079816;28;20052;-64
2022/05/25 05:15:52;;;;;;;13.23;9.07;;;13.40;99.90;;;;;;5076107;28;20121;-66
2022/05/25 05:18:19;;;;;;;13.85;8.85;;;13.50;99.90;;;;;;5070826;28;20044;-65
2022/05/25 05:20:45;;;;;;;12.77;8.65;;;13.60;99.90;;;;;;5075551;28;20056;-64
2022/05/25 05:23:11;;;;;;;12.75;8.70;;;13.70;99.90;;;;;;5079134;28;20047;-65
2022/05/25 05:25:36;;;;;;;15.23;9.13;;;13.80;99.90;;;;;;5078699;28;20088;-65
2022/05/25 05:28:17;;;;;;;13.73;8.85;;;13.90;99.90;;;;;;5071863;28;20066;-66
2022/05/25 05:30:50;;;;;;;16.05;10.48;;;14.00;99.90;;;;;;5071995;28;20085;-66
2022/05/25 05:33:16;;;;;;;15.50;9.95;;;14.10;99.90;;;;;;5076395;28;20494;-65
2022/05/25 05:35:43;;;;;;;12.98;10.02;;;14.20;99.90;;;;;;5082917;28;20078;-64
2022/05/25 05:38:11;;;;;;;12.77;9.57;;;14.30;99.90;;;;;;5077992;28;21003;-65
2022/05/25 05:40:37;;;;;;;13.85;9.68;;;14.40;99.90;;;;;;5076704;28;20136;-65
2022/05/25 05:43:05;;;;;;;14.95;10.60;;;14.50;99.90;;;;;;5080908;28;20044;-67
2022/05/25 05:45:34;;;;;;;13.70;10.02;;;14.60;99.90;;;;;;5079094;28;20056;-64
2022/05/25 05:48:13;;;;;;;15.50;9.63;;;14.70;99.90;;;;;;5079026;28;20127;-64
2022/05/25 05:50:40;;;;;;;15.23;10.30;;;14.90;99.90;;;;;;5084839;28;20036;-65
2022/05/25 05:53:08;;;;;;;15.95;9.88;;;14.90;99.90;;;;;;5084839;28;20089;-64
2022/05/25 05:55:35;;;;;;;13.88;10.35;;;15.00;99.90;;;;;;5084112;28;20058;-64
2022/05/25 05:58:00;;;;;;;16.02;11.02;;;15.10;99.90;;;;;;5081690;28;20040;-64
2022/05/25 06:00:26;;;;;;;16.17;10.57;;;15.20;99.90;;;;;;5079669;28;20043;-64
2022/05/25 06:02:52;;;;;;;19.77;11.38;;;15.20;99.90;;;;;;5078860;28;20069;-65
2022/05/25 06:05:17;;;;;;;15.23;10.23;;;15.30;99.90;;;;;;5086829;28;20424;-64
2022/05/25 06:07:43;;;;;;;14.00;10.73;;;15.40;99.90;;;;;;5080048;28;20441;-64
2022/05/25 06:10:09;;;;;;;12.88;9.88;;;15.40;99.90;;;;;;5087724;28;20036;-61
2022/05/25 06:12:35;;;;;;;12.25;9.45;;;15.40;99.90;;;;;;5082359;28;20079;-62
2022/05/25 06:19:25;;;;;;;17.40;10.95;;;15.50;99.90;;;;;;5086342;28;20076;-62
2022/05/25 06:20:35;;;;;;;15.00;10.20;;;15.70;99.90;;;;;;5078254;28;20044;-63
2022/05/25 06:23:01;;;;;;;14.00;9.55;;;15.80;99.90;;;;;;5086140;28;20040;-63
2022/05/25 06:25:28;;;;;;;12.70;8.82;;;15.90;99.90;;;;;;5084236;28;20473;-62
2022/05/25 06:27:54;;;;;;;13.60;9.52;;;15.90;99.90;;;;;;5089101;28;20127;-63
2022/05/25 06:30:19;;;;;;;11.98;8.63;;;16.00;99.90;;;;;;5085637;28;20401;-65
2022/05/25 06:32:45;;;;;;;13.23;8.70;;;15.90;99.90;;;;;;5084094;28;20036;-65
2022/05/25 06:35:11;;;;;;;13.75;8.38;;;16.10;99.90;;;;;;5076308;28;20043;-63
2022/05/25 06:37:36;;;;;;;10.98;8.27;;;16.20;99.90;;;;;;5087737;28;20078;-62
2022/05/25 06:40:03;;;;;;;12.70;8.15;;;16.30;99.90;;;;;;5086881;28;20055;-64
2022/05/25 06:42:28;;;;;;;11.52;8.25;;;16.30;99.90;;;;;;5085623;28;20042;-63
2022/05/25 06:44:54;;;;;;;14.35;8.20;;;16.30;99.90;;;;;;5089613;28;20035;-64
2022/05/25 06:47:19;;;;;;;13.27;8.23;;;16.20;99.90;;;;;;5087216;28;20261;-63
2022/05/25 06:49:45;;;;;;;11.88;7.88;;;16.30;99.90;;;;;;5089438;28;20169;-65
2022/05/25 06:52:11;;;;;;;12.02;7.93;;;16.40;99.90;;;;;;5086032;28;20060;-65
2022/05/25 06:54:37;;;;;;;13.45;7.70;;;16.50;99.90;;;;;;5080191;28;20348;-64
2022/05/25 06:57:03;;;;;;;10.25;7.43;;;16.60;99.90;;;;;;5086863;28;20422;-64
2022/05/25 06:59:29;;;;;;;12.70;7.32;;;16.60;99.90;;;;;;5084258;28;20044;-64
2022/05/25 07:01:54;;;;;;;10.18;7.50;;;16.70;99.90;;;;;;5073807;28;20431;-64
2022/05/25 07:04:21;;;;;;;10.30;7.95;;;16.70;99.90;;;;;;5078233;28;20123;-63
2022/05/25 07:06:46;;;;;;;9.75;7.18;;;16.80;99.90;;;;;;5085425;28;20055;-62
2022/05/25 07:09:12;;;;;;;12.32;7.50;;;16.90;99.90;;;;;;5085282;28;20036;-65
2022/05/25 07:11:42;;;;;;;13.35;7.47;;;16.90;99.90;;;;;;5083790;28;20075;-66
2022/05/25 07:14:09;;;;;;;11.93;7.18;;;17.00;99.90;;;;;;5089204;28;20089;-64
2022/05/25 07:16:35;;;;;;;10.00;7.00;;;17.00;99.90;;;;;;5085266;28;20048;-64
2022/05/25 07:19:02;;;;;;;11.75;7.40;;;16.90;99.90;;;;;;5086605;28;20043;-63
2022/05/25 07:21:30;;;;;;;8.15;6.18;;;16.90;99.90;;;;;;5089311;28;20082;-64
2022/05/25 07:23:58;;;;;;;11.32;5.97;;;17.00;99.90;;;;;;5081142;28;20078;-64
2022/05/25 07:26:26;;;;;;;8.88;6.15;;;17.10;99.90;;;;;;5084434;28;20490;-64
2022/05/25 07:28:52;;;;;;;10.43;6.20;;;17.30;99.90;;;;;;5088617;28;20071;-63
2022/05/25 07:31:24;;;;;;;7.88;5.25;;;17.50;99.90;;;;;;5088000;28;20047;-63
2022/05/25 07:33:57;;;;;;;9.68;5.38;;;17.70;99.90;;;;;;5091069;28;20401;-64
2022/05/25 07:36:24;;;;;;;8.70;4.88;;;17.70;99.90;;;;;;5078099;28;20044;-65
2022/05/25 07:38:52;;;;;;;10.02;5.30;;;17.70;99.90;;;;;;5086525;28;20054;-64
2022/05/25 07:41:18;;;;;;;9.57;4.97;;;17.70;99.90;;;;;;5084428;28;20478;-64
2022/05/25 07:43:47;;;;;;;8.80;5.30;;;17.60;99.90;;;;;;5086911;28;20085;-63
2022/05/25 07:46:12;;;;;;;7.70;5.05;;;17.50;99.90;;;;;;5090092;28;20048;-63
2022/05/25 07:48:38;;;;;;;8.98;4.70;;;17.30;99.90;;;;;;5089317;28;20048;-64
2022/05/25 07:51:05;;;;;;;19.45;6.25;;;17.30;99.90;;;;;;5091263;28;20120;-63
2022/05/25 07:56:15;;;;;;;10.43;4.90;;;17.50;99.90;;;;;;5076715;28;20048;-64
2022/05/25 07:58:41;;;;;;;8.55;5.07;;;17.60;99.90;;;;;;5089813;28;20059;-63
2022/05/25 08:01:12;;;;;;;8.10;5.38;;;17.80;99.90;;;;;;5092167;28;20051;-65
2022/05/25 08:06:22;;;;;;;8.47;4.67;;;17.90;99.90;;;;;;5085644;28;20449;-65
2022/05/25 08:08:48;;;;;;;6.50;4.78;;;18.00;99.90;;;;;;5081220;28;20131;-65
2022/05/25 08:11:16;;;;;;;6.53;4.13;;;18.20;99.90;;;;;;5090191;28;20111;-65
2022/05/25 08:13:48;;;;;;;7.10;4.20;;;18.30;99.90;;;;;;5091276;28;20412;-64
2022/05/25 08:16:13;;;;;;;6.32;4.13;;;18.50;99.90;;;;;;5093048;28;20082;-65
2022/05/25 08:18:39;;;;;;;7.30;3.58;;;18.90;99.90;;;;;;5081564;28;20728;-64
2022/05/25 08:21:05;;;;;;;6.78;3.90;;;19.10;99.90;;;;;;5085589;28;20047;-64
2022/05/25 08:23:31;;;;;;;6.28;3.63;;;19.30;99.90;;;;;;5083966;28;20040;-64
2022/05/25 08:25:56;;;;;;;8.57;3.65;;;19.40;99.90;;;;;;5091045;28;20040;-64
2022/05/25 08:28:22;;;;;;;7.07;3.42;;;19.40;99.90;;;;;;5089654;28;20051;-63
2022/05/25 08:30:48;;;;;;;7.78;3.55;;;19.30;99.90;;;;;;5091059;28;20478;-64
2022/05/25 08:33:20;;;;;;;6.15;3.50;;;19.40;99.90;;;;;;5090279;28;20032;-64
2022/05/25 08:35:46;;;;;;;5.47;3.10;;;19.50;99.70;;;;;;5091692;28;20077;-64
2022/05/25 08:38:12;;;;;;;5.30;3.40;;;19.60;99.90;;;;;;5086966;28;20535;-64
2022/05/25 08:40:38;;;;;;;4.97;3.00;;;19.70;99.90;;;;;;5085259;28;20131;-66
2022/05/25 08:43:23;;;;;;;4.90;3.15;;;19.60;99.80;;;;;;5085957;28;20088;-67
2022/05/25 08:45:53;;;;;;;5.43;3.15;;;19.40;98.70;;;;;;5083892;28;20071;-64
2022/05/25 08:48:21;;;;;;;6.13;3.20;;;19.20;98.60;;;;;;5074603;28;20048;-64
2022/05/25 08:50:52;;;;;;;11.98;4.07;;;19.20;99.00;;;;;;5075758;28;20059;-63
2022/05/25 08:53:21;;;;;;;55.35;9.63;;;19.10;98.70;;;;;;5081232;28;20036;-64
2022/05/25 08:56:01;;;;;;;10.27;3.33;;;19.10;98.50;;;;;;5085193;28;20062;-63
2022/05/25 08:58:45;;;;;;;5.28;2.63;;;19.10;98.50;;;;;;5084689;28;20078;-64
2022/05/25 09:01:14;;;;;;;6.68;2.88;;;19.20;98.70;;;;;;5086751;28;20051;-62
2022/05/25 09:03:52;;;;;;;6.25;2.47;;;19.10;97.50;;;;;;5089696;28;20055;-63
2022/05/25 09:06:34;;;;;;;7.45;2.67;;;19.30;97.30;;;;;;5081964;28;20048;-63
2022/05/25 09:09:17;;;;;;;4.82;2.45;;;19.50;96.50;;;;;;5079023;28;20044;-63
2022/05/25 09:12:18;;;;;;;4.18;2.13;;;19.90;95.30;;;;;;5082329;28;20506;-63
2022/05/25 09:14:58;;;;;;;7.55;2.17;;;20.00;94.90;;;;;;5088761;28;20093;-63
2022/05/25 09:17:37;;;;;;;4.72;2.00;;;20.20;94.50;;;;;;5086804;28;20083;-64
2022/05/25 09:20:03;;;;;;;4.65;2.00;;;20.40;93.80;;;;;;5086493;28;20036;-66
2022/05/25 09:22:31;;;;;;;4.82;2.10;;;20.30;93.20;;;;;;5081041;28;20101;-63
2022/05/25 09:25:00;;;;;;;4.47;2.17;;;20.30;92.80;;;;;;5079415;28;20429;-64
2022/05/25 09:27:36;;;;;;;5.75;2.05;;;20.20;92.70;;;;;;5088273;28;20054;-64
2022/05/25 09:30:03;;;;;;;5.60;2.50;;;20.10;93.10;;;;;;5077971;28;20485;-64
2022/05/25 09:32:38;;;;;;;5.22;2.58;;;19.90;93.10;;;;;;5089546;28;20042;-63
2022/05/25 09:35:10;;;;;;;6.13;2.55;;;19.90;93.20;;;;;;5080717;28;20076;-64
2022/05/25 09:37:51;;;;;;;6.63;2.50;;;20.20;93.00;;;;;;5076246;28;20080;-63
2022/05/25 09:40:32;;;;;;;8.00;2.65;;;20.50;91.60;;;;;;5075775;28;20121;-64
2022/05/25 09:42:58;;;;;;;6.60;2.15;;;20.70;91.50;;;;;;5089972;28;20044;-64
2022/05/25 09:45:29;;;;;;;7.13;2.50;;;20.70;91.50;;;;;;5088742;28;20047;-63
2022/05/25 09:47:55;;;;;;;5.18;2.30;;;20.70;91.30;;;;;;5088952;28;20043;-63
2022/05/25 09:50:26;;;;;;;4.53;2.40;;;20.60;91.10;;;;;;5089540;28;20036;-66
2022/05/25 09:52:53;;;;;;;6.43;2.97;;;20.50;90.20;;;;;;5085613;28;20040;-62
2022/05/25 09:55:21;;;;;;;6.90;3.08;;;20.50;90.30;;;;;;5077463;28;20068;-63
2022/05/25 09:57:59;;;;;;;5.18;2.42;;;20.60;89.30;;;;;;5080942;28;20044;-62
2022/05/25 10:00:50;;;;;;;5.70;2.80;;;20.60;87.50;;;;;;5082071;28;20090;-62
2022/05/25 10:03:30;;;;;;;6.43;2.53;;;20.50;87.50;;;;;;5082641;28;20052;-62
2022/05/25 10:05:59;;;;;;;4.78;2.55;;;20.70;83.70;;;;;;5080049;28;20040;-63
2022/05/25 10:08:39;;;;;;;8.90;2.97;;;20.80;85.70;;;;;;5078603;28;20042;-64
2022/05/25 10:11:31;;;;;;;4.45;2.78;;;20.90;87.70;;;;;;5080624;28;20039;-63
2022/05/25 10:14:17;;;;;;;6.88;2.75;;;21.20;87.30;;;;;;5079147;28;20052;-64
2022/05/25 10:16:42;;;;;;;5.88;2.95;;;21.10;82.90;;;;;;5080036;28;20057;-62
2022/05/25 10:19:16;;;;;;;6.10;2.85;;;21.10;83.60;;;;;;5083136;28;20130;-62
2022/05/25 10:21:51;;;;;;;6.32;3.53;;;21.20;83.00;;;;;;5080482;28;20060;-63
2022/05/25 10:24:27;;;;;;;6.93;3.78;;;21.20;82.90;;;;;;5081566;28;20041;-63
2022/05/25 10:26:58;;;;;;;5.38;3.70;;;21.20;83.50;;;;;;5081750;28;20092;-64
2022/05/25 10:38:29;;;;;;;5.70;3.58;;;21.70;77.80;;;;;;5082545;28;20045;-63
2022/05/25 10:41:37;;;;;;;7.15;4.10;;;21.50;78.50;;;;;;5077430;28;20047;-64
2022/05/25 10:43:51;;;;;;;9.25;4.07;;;21.60;79.20;;;;;;5080798;28;20048;-64
2022/05/25 10:46:17;;;;;;;5.55;3.40;;;21.40;79.00;;;;;;5078707;28;20051;-63
2022/05/25 10:48:55;;;;;;;6.93;3.90;;;21.50;78.20;;;;;;5079965;28;20458;-63
2022/05/25 10:51:30;;;;;;;7.40;3.80;;;21.40;76.90;;;;;;5078742;28;20040;-63
2022/05/25 10:57:02;;;;;;;8.93;4.25;;;21.50;74.60;;;;;;5080821;28;20123;-64
2022/05/25 10:59:28;;;;;;;7.65;4.07;;;21.60;72.60;;;;;;5076729;28;20495;-64
2022/05/25 11:02:31;;;;;;;7.72;3.50;;;21.50;74.60;;;;;;5082930;28;20087;-64
2022/05/25 11:05:41;;;;;;;7.28;4.15;;;21.30;74.60;;;;;;5078107;28;20123;-64
2022/05/25 11:08:30;;;;;;;7.07;3.65;;;21.10;73.00;;;;;;5066684;28;20405;-63
2022/05/25 11:11:05;;;;;;;5.90;3.60;;;20.60;74.30;;;;;;5057949;28;20073;-64
2022/05/25 11:13:42;;;;;;;6.63;3.50;;;20.50;76.00;;;;;;5078684;28;20059;-64
2022/05/25 11:16:53;;;;;;;7.03;3.80;;;20.30;76.40;;;;;;5081334;28;20044;-63
2022/05/25 11:19:58;;;;;;;7.05;3.80;;;20.30;78.80;;;;;;5042960;28;20041;-63
2022/05/25 11:22:35;;;;;;;6.95;4.45;;;20.40;81.00;;;;;;5067564;28;20033;-64
2022/05/25 11:25:06;;;;;;;6.20;3.65;;;20.40;79.70;;;;;;5069536;28;20040;-63
2022/05/25 11:27:56;;;;;;;6.78;3.78;;;20.10;80.00;;;;;;5081257;28;20097;-64
2022/05/25 11:30:29;;;;;;;10.05;4.13;;;20.00;86.50;;;;;;5082220;28;20044;-64
2022/05/25 11:33:13;;;;;;;6.70;4.10;;;19.80;88.50;;;;;;5089523;28;20047;-64
2022/05/25 11:35:51;;;;;;;8.57;4.50;;;19.40;91.60;;;;;;5088839;28;20197;-64
2022/05/25 11:38:21;;;;;;;7.43;4.03;;;18.80;96.20;;;;;;5088095;28;20109;-63
2022/05/25 11:41:27;;;;;;;7.30;3.30;;;18.80;96.40;;;;;;5087239;28;20040;-63
2022/05/25 11:44:26;;;;;;;9.35;2.30;;;18.90;97.10;;;;;;5073643;28;20489;-63
2022/05/25 11:46:52;;;;;;;4.53;1.42;;;19.10;94.30;;;;;;5084924;28;20070;-64
2022/05/25 11:50:05;;;;;;;4.20;1.40;;;19.20;92.80;;;;;;5072063;28;20105;-64
2022/05/25 11:52:53;;;;;;;4.07;1.80;;;19.50;90.90;;;;;;5069017;28;20064;-64
2022/05/25 11:55:31;;;;;;;4.10;2.22;;;19.70;90.80;;;;;;5072244;28;20048;-64
2022/05/25 11:58:10;;;;;;;6.22;2.55;;;19.90;91.80;;;;;;5072187;28;20048;-63
2022/05/25 12:01:03;;;;;;;5.63;2.75;;;20.20;91.90;;;;;;5081188;28;20055;-63
2022/05/25 12:04:04;;;;;;;5.00;2.50;;;20.40;91.40;;;;;;5084244;28;20405;-64
2022/05/25 12:07:04;;;;;;;4.28;1.90;;;20.60;91.20;;;;;;5078270;28;20102;-64
2022/05/25 12:09:58;;;;;;;4.97;1.80;;;20.80;88.50;;;;;;5092008;28;20044;-64
2022/05/25 12:12:47;;;;;;;4.63;1.67;;;20.80;86.80;;;;;;5087285;28;20052;-63
2022/05/25 12:15:41;;;;;;;5.32;1.80;;;20.90;87.10;;;;;;5089946;28;20071;-64
2022/05/25 12:18:21;;;;;;;4.35;1.55;;;21.00;84.90;;;;;;5078452;28;20449;-64
2022/05/25 12:21:01;;;;;;;4.93;1.30;;;21.20;83.60;;;;;;5086593;28;20040;-64
2022/05/25 12:23:34;;;;;;;5.78;1.40;;;21.30;83.10;;;;;;5077391;28;20055;-64
2022/05/25 12:26:14;;;;;;;6.38;1.27;;;21.30;81.20;;;;;;5082370;28;20040;-64
2022/05/25 12:28:43;;;;;;;4.53;1.05;;;21.30;78.60;;;;;;5092852;28;20043;-63
2022/05/25 12:31:13;;;;;;;4.28;1.20;;;21.00;76.20;;;;;;5091579;28;20040;-64
2022/05/25 12:33:42;;;;;;;4.78;1.10;;;21.10;74.80;;;;;;5085357;28;20050;-63
2022/05/25 12:36:10;;;;;;;5.35;1.30;;;21.00;71.60;;;;;;5091676;28;20040;-63
2022/05/25 12:38:37;;;;;;;4.93;0.90;;;21.10;70.50;;;;;;5089053;28;20052;-65
2022/05/25 12:41:25;;;;;;;6.32;1.23;;;21.10;68.90;;;;;;5082154;28;20426;-64
2022/05/25 12:43:55;;;;;;;15.38;2.53;;;21.00;67.10;;;;;;5084608;28;20158;-63
2022/05/25 12:49:34;;;;;;;4.32;1.05;;;21.10;68.50;;;;;;5091600;28;20393;-64
2022/05/25 12:52:00;;;;;;;9.23;1.10;;;21.10;69.10;;;;;;5092145;28;20040;-64
2022/05/25 12:54:32;;;;;;;8.43;1.77;;;21.20;67.10;;;;;;5087886;28;20076;-64
2022/05/25 12:56:59;;;;;;;4.82;1.10;;;21.10;65.40;;;;;;5092076;28;20044;-64
2022/05/25 12:59:33;;;;;;;2.67;0.73;;;21.20;65.60;;;;;;5091866;28;20108;-63
2022/05/25 13:02:25;;;;;;;2.22;0.65;;;21.20;64.10;;;;;;5090959;28;20151;-64
2022/05/25 13:04:59;;;;;;;3.05;0.70;;;21.40;63.60;;;;;;5087789;28;20116;-64
2022/05/25 13:07:46;;;;;;;4.20;0.70;;;21.50;64.50;;;;;;5090069;28;20052;-64
2022/05/25 13:10:12;;;;;;;4.18;1.08;;;21.90;64.20;;;;;;5087098;28;20037;-64
2022/05/25 13:12:40;;;;;;;3.88;0.90;;;21.90;63.00;;;;;;5086074;28;20555;-65
2022/05/25 13:15:16;;;;;;;4.38;0.80;;;21.60;62.80;;;;;;5090740;28;20048;-64
2022/05/25 13:17:55;;;;;;;3.80;0.70;;;21.70;62.70;;;;;;5091060;28;20048;-64
2022/05/25 13:20:27;;;;;;;4.28;1.00;;;21.50;62.90;;;;;;5080737;28;20040;-65
2022/05/25 13:23:04;;;;;;;2.30;0.60;;;21.20;62.20;;;;;;5090868;28;20059;-64
2022/05/25 13:25:55;;;;;;;4.03;0.70;;;21.20;62.80;;;;;;5091350;28;20109;-65
2022/05/25 13:28:40;;;;;;;6.25;1.10;;;21.50;63.70;;;;;;5089025;28;20147;-64
2022/05/25 13:31:45;;;;;;;4.00;0.90;;;21.50;63.60;;;;;;5091121;28;20036;-64
2022/05/25 13:34:15;;;;;;;3.42;0.55;;;21.30;63.60;;;;;;5075480;28;20071;-65
2022/05/25 13:36:49;;;;;;;6.18;0.80;;;21.20;62.60;;;;;;5089702;28;20051;-65